createdAt,value
2022-08-22T00:00:11.831Z,23.80
2022-08-22T00:02:40.426Z,23.80
2022-08-22T00:02:45.720Z,25.60
2022-08-22T00:02:59.525Z,25.50
2022-08-22T00:03:09.032Z,25.30
2022-08-22T00:03:09.333Z,24.40
2022-08-22T00:05:37.413Z,23.80
2022-08-22T00:08:27.600Z,23.70
2022-08-22T00:10:59.438Z,23.70
2022-08-22T00:13:33.962Z,23.70
2022-08-22T00:16:28.964Z,23.60
2022-08-22T00:19:34.510Z,23.60
2022-08-22T00:22:01.353Z,23.60
2022-08-22T00:24:48.171Z,23.60
2022-08-22T00:27:27.167Z,23.50
2022-08-22T00:30:11.983Z,23.50
2022-08-22T00:33:05.255Z,23.50
2022-08-22T00:35:45.336Z,23.60
2022-08-22T00:38:36.230Z,23.50
2022-08-22T00:41:24.422Z,23.50
2022-08-22T00:44:11.724Z,23.50
2022-08-22T00:47:10.839Z,23.50
2022-08-22T00:49:40.505Z,23.50
2022-08-22T00:52:32.175Z,23.50
2022-08-22T00:55:06.937Z,23.50
2022-08-22T00:57:36.520Z,23.50
2022-08-22T01:00:21.818Z,23.40
2022-08-22T01:03:07.502Z,23.40
2022-08-22T01:06:24.607Z,23.40
2022-08-22T01:09:36.639Z,23.30
2022-08-22T01:13:08.141Z,23.30
2022-08-22T01:15:37.650Z,23.20
2022-08-22T01:18:16.347Z,23.20
2022-08-22T01:21:20.130Z,23.20
2022-08-22T01:24:09.459Z,23.20
2022-08-22T01:27:23.704Z,23.20
2022-08-22T01:30:03.431Z,23.20
2022-08-22T01:32:31.569Z,23.20
2022-08-22T01:35:09.805Z,23.20
2022-08-22T01:38:14.350Z,23.20
2022-08-22T01:40:59.016Z,23.20
2022-08-22T01:44:03.422Z,23.10
2022-08-22T01:46:51.552Z,22.90
2022-08-22T01:49:28.114Z,22.80
2022-08-22T01:52:34.811Z,22.70
2022-08-22T01:55:41.288Z,22.60
2022-08-22T01:58:23.572Z,22.50
2022-08-22T02:01:10.796Z,22.40
2022-08-22T02:04:01.909Z,22.40
2022-08-22T02:07:00.481Z,22.50
2022-08-22T02:10:03.398Z,22.50
2022-08-22T02:13:02.498Z,22.50
2022-08-22T02:15:41.676Z,22.50
2022-08-22T02:18:25.990Z,22.50
2022-08-22T02:21:24.254Z,22.60
2022-08-22T02:23:57.894Z,22.60
2022-08-22T02:26:27.601Z,22.60
2022-08-22T02:29:01.306Z,22.70
2022-08-22T02:32:05.742Z,22.70
2022-08-22T02:34:53.169Z,22.80
2022-08-22T02:37:31.975Z,22.80
2022-08-22T02:40:09.651Z,22.80
2022-08-22T02:42:43.206Z,22.80
2022-08-22T02:45:16.084Z,22.80
2022-08-22T02:47:57.314Z,22.90
2022-08-22T02:50:35.952Z,22.90
2022-08-22T02:53:17.320Z,22.90
2022-08-22T02:56:12.491Z,22.90
2022-08-22T02:58:45.594Z,22.90
2022-08-22T03:01:28.174Z,22.90
2022-08-22T03:04:32.149Z,22.90
2022-08-22T03:07:01.770Z,22.90
2022-08-22T03:09:41.757Z,22.90
2022-08-22T03:12:21.142Z,22.90
2022-08-22T03:14:54.526Z,22.90
2022-08-22T03:17:49.469Z,22.90
2022-08-22T03:20:42.526Z,22.90
2022-08-22T03:23:39.066Z,22.90
2022-08-22T03:26:18.984Z,22.90
2022-08-22T03:28:59.191Z,22.90
2022-08-22T03:31:28.693Z,22.80
2022-08-22T03:34:17.201Z,22.80
2022-08-22T03:37:02.144Z,22.80
2022-08-22T03:39:56.307Z,22.80
2022-08-22T03:42:53.121Z,22.70
2022-08-22T03:45:54.764Z,22.70
2022-08-22T03:48:27.711Z,22.60
2022-08-22T03:51:08.293Z,22.60
2022-08-22T03:54:12.457Z,22.50
2022-08-22T03:56:58.946Z,22.50
2022-08-22T03:59:34.412Z,22.50
2022-08-22T04:02:42.781Z,22.40
2022-08-22T04:05:58.383Z,22.40
2022-08-22T04:08:57.737Z,22.40
2022-08-22T04:11:46.255Z,22.40
2022-08-22T04:14:44.048Z,22.40
2022-08-22T04:17:17.027Z,22.40
2022-08-22T04:20:04.979Z,22.40
2022-08-22T04:23:26.799Z,22.40
2022-08-22T04:25:58.607Z,22.40
2022-08-22T04:28:34.611Z,22.40
2022-08-22T04:31:04.296Z,22.40
2022-08-22T04:33:40.875Z,22.40
2022-08-22T04:36:21.332Z,22.40
2022-08-22T04:38:56.258Z,22.40
2022-08-22T04:41:41.302Z,22.40
2022-08-22T04:44:27.165Z,22.40
2022-08-22T04:47:05.971Z,22.40
2022-08-22T04:49:38.377Z,22.40
2022-08-22T04:52:10.265Z,22.40
2022-08-22T04:55:02.175Z,22.40
2022-08-22T04:58:06.547Z,22.40
2022-08-22T05:00:42.483Z,22.40
2022-08-22T05:03:14.971Z,22.40
2022-08-22T05:05:45.020Z,22.40
2022-08-22T05:08:18.632Z,22.40
2022-08-22T05:10:49.061Z,22.40
2022-08-22T05:13:23.951Z,22.40
2022-08-22T05:15:56.962Z,22.50
2022-08-22T05:18:32.207Z,22.50
2022-08-22T05:21:01.887Z,22.50
2022-08-22T05:23:44.433Z,22.50
2022-08-22T05:26:13.456Z,22.50
2022-08-22T05:28:53.315Z,22.50
2022-08-22T05:31:34.654Z,22.50
2022-08-22T05:34:11.360Z,22.50
2022-08-22T05:36:46.635Z,22.50
2022-08-22T05:39:27.844Z,22.50
2022-08-22T05:41:56.895Z,22.50
2022-08-22T05:44:28.200Z,22.50
2022-08-22T05:47:10.210Z,22.50
2022-08-22T05:49:40.124Z,22.50
2022-08-22T05:52:19.594Z,22.50
2022-08-22T05:54:56.136Z,22.50
2022-08-22T05:57:31.189Z,22.40
2022-08-22T06:00:13.127Z,22.50
2022-08-22T06:03:10.653Z,22.40
2022-08-22T06:05:42.890Z,22.50
2022-08-22T06:08:25.012Z,22.50
2022-08-22T06:10:56.266Z,22.50
2022-08-22T06:13:44.244Z,22.60
2022-08-22T06:16:21.505Z,22.60
2022-08-22T06:18:51.237Z,22.70
2022-08-22T06:21:25.995Z,22.70
2022-08-22T06:23:57.480Z,22.70
2022-08-22T06:26:38.305Z,22.80
2022-08-22T06:29:08.554Z,22.90
2022-08-22T06:31:49.054Z,22.90
2022-08-22T06:34:23.564Z,22.90
2022-08-22T06:36:53.489Z,23.00
2022-08-22T06:39:27.939Z,23.00
2022-08-22T06:42:01.460Z,23.30
2022-08-22T06:44:51.715Z,23.70
2022-08-22T06:47:23.563Z,24.10
2022-08-22T06:49:57.289Z,24.40
2022-08-22T06:52:28.314Z,24.50
2022-08-22T06:55:01.658Z,24.70
2022-08-22T06:57:52.007Z,24.70
2022-08-22T07:00:19.470Z,24.70
2022-08-22T07:02:59.598Z,24.80
2022-08-22T07:05:29.669Z,25.10
2022-08-22T07:07:57.268Z,25.40
2022-08-22T07:10:25.065Z,25.40
2022-08-22T07:12:56.625Z,25.50
2022-08-22T07:15:35.360Z,25.50
2022-08-22T07:18:09.786Z,25.40
2022-08-22T07:20:45.140Z,25.30
2022-08-22T07:23:46.008Z,25.00
2022-08-22T07:26:27.772Z,24.80
2022-08-22T07:29:13.247Z,24.70
2022-08-22T07:31:58.828Z,24.60
2022-08-22T07:34:38.101Z,24.60
2022-08-22T07:37:31.989Z,24.50
2022-08-22T07:40:25.036Z,24.40
2022-08-22T07:43:24.962Z,24.40
2022-08-22T07:45:57.191Z,24.40
2022-08-22T07:48:28.613Z,24.50
2022-08-22T07:51:07.938Z,24.60
2022-08-22T07:53:42.255Z,24.80
2022-08-22T07:56:16.560Z,25.10
2022-08-22T07:58:46.010Z,25.60
2022-08-22T08:01:17.917Z,26.00
2022-08-22T08:03:53.139Z,26.30
2022-08-22T08:06:23.378Z,26.60
2022-08-22T08:08:51.686Z,26.70
2022-08-22T08:11:21.449Z,27.10
2022-08-22T08:13:52.967Z,27.60
2022-08-22T08:16:24.819Z,27.90
2022-08-22T08:18:56.660Z,28.30
2022-08-22T08:21:33.482Z,28.60
2022-08-22T08:24:01.722Z,29.00
2022-08-22T08:26:38.782Z,29.30
2022-08-22T08:29:07.272Z,29.60
2022-08-22T08:31:43.366Z,29.90
2022-08-22T08:34:19.946Z,29.90
2022-08-22T08:36:57.639Z,29.80
2022-08-22T08:39:35.021Z,29.90
2022-08-22T08:42:59.240Z,30.00
2022-08-22T08:45:59.412Z,30.10
2022-08-22T08:48:51.664Z,30.30
2022-08-22T08:51:37.906Z,30.50
2022-08-22T08:54:26.306Z,30.50
2022-08-22T08:57:14.918Z,30.70
2022-08-22T09:00:01.766Z,30.70
2022-08-22T09:02:40.501Z,30.70
2022-08-22T09:05:19.587Z,30.90
2022-08-22T09:08:43.085Z,31.10
2022-08-22T09:11:31.090Z,31.00
2022-08-22T09:14:12.396Z,30.90
2022-08-22T09:17:31.298Z,30.70
2022-08-22T09:20:17.665Z,30.70
2022-08-22T09:23:22.792Z,30.70
2022-08-22T09:25:59.627Z,31.10
2022-08-22T09:28:31.298Z,31.70
2022-08-22T09:31:16.524Z,32.00
2022-08-22T09:33:46.859Z,32.00
2022-08-22T09:36:30.754Z,31.90
2022-08-22T09:39:13.958Z,31.80
2022-08-22T09:42:08.158Z,31.70
2022-08-22T09:44:39.726Z,31.60
2022-08-22T09:47:12.293Z,31.40
2022-08-22T09:49:55.819Z,31.30
2022-08-22T09:52:57.934Z,31.30
2022-08-22T09:55:35.373Z,31.10
2022-08-22T09:58:45.610Z,30.90
2022-08-22T10:01:23.578Z,31.00
2022-08-22T10:04:28.025Z,31.10
2022-08-22T10:07:11.626Z,31.00
2022-08-22T10:09:53.381Z,31.00
2022-08-22T10:12:36.203Z,30.90
2022-08-22T10:15:25.437Z,30.90
2022-08-22T10:18:05.249Z,31.00
2022-08-22T10:20:42.241Z,30.90
2022-08-22T10:23:41.629Z,30.70
2022-08-22T10:26:35.252Z,30.40
2022-08-22T10:29:26.138Z,30.30
2022-08-22T10:32:00.079Z,30.20
2022-08-22T10:34:40.009Z,30.10
2022-08-22T10:37:32.687Z,29.90
2022-08-22T10:40:07.170Z,29.80
2022-08-22T10:42:47.553Z,29.60
2022-08-22T10:45:36.759Z,29.60
2022-08-22T10:48:23.407Z,29.40
2022-08-22T10:51:09.851Z,29.40
2022-08-22T10:53:52.611Z,29.20
2022-08-22T10:56:34.979Z,29.20
2022-08-22T10:59:27.501Z,29.10
2022-08-22T11:02:21.863Z,29.10
2022-08-22T11:05:25.725Z,29.20
2022-08-22T11:08:19.489Z,29.20
2022-08-22T11:11:06.917Z,29.30
2022-08-22T11:13:51.671Z,29.40
2022-08-22T11:17:23.569Z,29.40
2022-08-22T11:20:25.266Z,29.30
2022-08-22T11:23:27.093Z,29.10
2022-08-22T11:26:13.689Z,29.00
2022-08-22T11:28:56.409Z,29.00
2022-08-22T11:31:31.754Z,28.90
2022-08-22T11:34:33.765Z,29.00
2022-08-22T11:37:43.579Z,29.00
2022-08-22T11:40:41.451Z,29.10
2022-08-22T11:43:39.644Z,29.30
2022-08-22T11:46:21.537Z,29.60
2022-08-22T11:48:59.037Z,30.00
2022-08-22T11:51:57.217Z,30.30
2022-08-22T11:54:36.541Z,30.30
2022-08-22T11:57:26.203Z,30.20
2022-08-22T12:00:23.568Z,30.10
2022-08-22T12:03:23.222Z,30.10
2022-08-22T12:06:02.495Z,30.10
2022-08-22T12:08:29.362Z,30.10
2022-08-22T12:11:03.577Z,30.20
2022-08-22T12:14:06.148Z,30.20
2022-08-22T12:17:09.647Z,30.10
2022-08-22T12:20:16.136Z,30.10
2022-08-22T12:23:05.426Z,30.20
2022-08-22T12:25:35.924Z,30.30
2022-08-22T12:28:23.756Z,30.40
2022-08-22T12:31:13.237Z,30.50
2022-08-22T12:34:01.152Z,30.60
2022-08-22T12:37:03.459Z,30.80
2022-08-22T12:40:11.466Z,30.90
2022-08-22T12:42:48.939Z,30.80
2022-08-22T12:45:35.811Z,30.70
2022-08-22T12:48:13.307Z,30.70
2022-08-22T12:50:57.218Z,30.80
2022-08-22T12:53:57.647Z,31.00
2022-08-22T12:56:31.253Z,31.20
2022-08-22T12:59:26.468Z,31.20
2022-08-22T13:01:56.748Z,31.30
2022-08-22T13:04:33.569Z,31.30
2022-08-22T13:07:18.498Z,31.30
2022-08-22T13:09:57.695Z,31.20
2022-08-22T13:12:31.848Z,31.10
2022-08-22T13:15:19.240Z,30.90
2022-08-22T13:17:47.967Z,30.70
2022-08-22T13:20:28.452Z,30.50
2022-08-22T13:22:56.220Z,30.40
2022-08-22T13:25:26.296Z,30.30
2022-08-22T13:28:00.343Z,30.20
2022-08-22T13:30:37.339Z,30.10
2022-08-22T13:33:13.633Z,30.10
2022-08-22T13:35:51.856Z,30.00
2022-08-22T13:38:38.343Z,29.90
2022-08-22T13:41:19.008Z,29.80
2022-08-22T13:44:06.631Z,29.80
2022-08-22T13:46:39.126Z,29.60
2022-08-22T13:49:32.731Z,29.40
2022-08-22T13:52:02.296Z,29.30
2022-08-22T13:54:47.023Z,29.30
2022-08-22T13:57:29.310Z,29.30
2022-08-22T14:00:28.645Z,29.20
2022-08-22T14:03:13.272Z,29.30
2022-08-22T14:05:44.620Z,29.40
2022-08-22T14:08:27.661Z,29.40
2022-08-22T14:11:01.926Z,29.40
2022-08-22T14:13:42.853Z,29.50
2022-08-22T14:16:27.098Z,29.40
2022-08-22T14:19:08.160Z,29.40
2022-08-22T14:21:47.163Z,29.40
2022-08-22T14:24:26.927Z,29.30
2022-08-22T14:26:59.707Z,29.30
2022-08-22T14:29:50.753Z,29.20
2022-08-22T14:32:25.222Z,29.10
2022-08-22T14:35:35.382Z,29.00
2022-08-22T14:38:17.081Z,29.10
2022-08-22T14:40:45.692Z,29.20
2022-08-22T14:43:22.534Z,29.10
2022-08-22T14:46:05.694Z,29.10
2022-08-22T14:48:47.364Z,29.20
2022-08-22T14:51:24.421Z,29.20
2022-08-22T14:53:52.321Z,29.20
2022-08-22T14:56:28.116Z,29.30
2022-08-22T14:59:04.151Z,29.30
2022-08-22T15:01:35.458Z,29.30
2022-08-22T15:04:09.638Z,29.40
2022-08-22T15:06:52.242Z,29.40
2022-08-22T15:09:34.017Z,29.50
2022-08-22T15:12:03.813Z,29.40
2022-08-22T15:14:52.970Z,29.40
2022-08-22T15:17:36.574Z,29.30
2022-08-22T15:20:27.701Z,29.30
2022-08-22T15:22:59.047Z,29.40
2022-08-22T15:25:34.315Z,29.30
2022-08-22T15:28:05.787Z,29.30
2022-08-22T15:30:38.809Z,29.30
2022-08-22T15:33:16.712Z,29.30
2022-08-22T15:35:46.348Z,29.30
2022-08-22T15:38:36.370Z,29.10
2022-08-22T15:41:22.085Z,29.10
2022-08-22T15:44:01.177Z,29.00
2022-08-22T15:46:34.716Z,29.00
2022-08-22T15:49:19.988Z,29.00
2022-08-22T15:52:14.922Z,28.90
2022-08-22T15:54:53.818Z,28.90
2022-08-22T15:57:41.359Z,29.00
2022-08-22T16:00:29.757Z,29.00
2022-08-22T16:02:59.748Z,28.90
2022-08-22T16:05:43.040Z,29.00
2022-08-22T16:08:14.334Z,29.00
2022-08-22T16:11:03.953Z,29.00
2022-08-22T16:13:30.843Z,29.00
2022-08-22T16:16:03.461Z,29.00
2022-08-22T16:18:33.401Z,29.00
2022-08-22T16:21:05.989Z,29.00
2022-08-22T16:23:51.223Z,29.10
2022-08-22T16:26:29.642Z,29.10
2022-08-22T16:28:59.566Z,29.00
2022-08-22T16:31:56.339Z,29.00
2022-08-22T16:34:26.144Z,29.00
2022-08-22T16:37:08.647Z,29.00
2022-08-22T16:39:53.915Z,29.10
2022-08-22T16:42:24.807Z,29.10
2022-08-22T16:45:05.505Z,29.10
2022-08-22T16:47:41.769Z,29.10
2022-08-22T16:50:26.955Z,29.00
2022-08-22T16:53:06.293Z,29.10
2022-08-22T16:55:35.981Z,29.00
2022-08-22T16:58:18.070Z,29.00
2022-08-22T17:01:07.265Z,29.00
2022-08-22T17:03:39.958Z,28.90
2022-08-22T17:06:32.490Z,28.80
2022-08-22T17:09:25.995Z,28.90
2022-08-22T17:12:32.112Z,28.80
2022-08-22T17:15:21.275Z,28.80
2022-08-22T17:18:22.043Z,28.80
2022-08-22T17:21:25.629Z,28.80
2022-08-22T17:24:03.179Z,28.80
2022-08-22T17:26:48.234Z,28.80
2022-08-22T17:29:24.455Z,28.80
2022-08-22T17:32:18.036Z,28.70
2022-08-22T17:34:47.688Z,28.70
2022-08-22T17:37:26.572Z,28.70
2022-08-22T17:40:21.213Z,28.70
2022-08-22T17:42:57.944Z,28.60
2022-08-22T17:45:33.995Z,28.60
2022-08-22T17:48:12.510Z,28.60
2022-08-22T17:50:58.283Z,28.60
2022-08-22T17:53:28.646Z,28.60
2022-08-22T17:56:27.657Z,28.60
2022-08-22T17:59:09.548Z,28.60
2022-08-22T18:01:43.586Z,28.60
2022-08-22T18:04:33.327Z,28.60
2022-08-22T18:07:15.778Z,28.60
2022-08-22T18:09:49.166Z,28.60
2022-08-22T18:12:34.373Z,28.60
2022-08-22T18:15:19.611Z,28.60
2022-08-22T18:18:05.455Z,28.60
2022-08-22T18:20:52.381Z,28.60
2022-08-22T18:23:42.519Z,28.50
2022-08-22T18:26:24.020Z,28.50
2022-08-22T18:28:51.568Z,28.40
2022-08-22T18:31:48.082Z,28.40
2022-08-22T18:34:29.767Z,28.30
2022-08-22T18:37:24.546Z,28.30
2022-08-22T18:39:59.958Z,28.20
2022-08-22T18:42:48.027Z,28.10
2022-08-22T18:45:43.867Z,28.10
2022-08-22T18:48:37.199Z,28.00
2022-08-22T18:51:23.881Z,27.90
2022-08-22T18:53:51.516Z,27.90
2022-08-22T18:56:54.600Z,27.80
2022-08-22T18:59:59.989Z,27.70
2022-08-22T19:02:39.419Z,27.60
2022-08-22T19:05:12.209Z,27.60
2022-08-22T19:07:57.176Z,27.50
2022-08-22T19:10:53.992Z,27.40
2022-08-22T19:13:42.123Z,27.40
2022-08-22T19:16:32.080Z,27.30
2022-08-22T19:19:17.409Z,27.20
2022-08-22T19:22:23.774Z,27.10
2022-08-22T19:25:12.452Z,27.00
2022-08-22T19:27:44.732Z,26.90
2022-08-22T19:30:41.609Z,26.90
2022-08-22T19:33:38.450Z,26.80
2022-08-22T19:36:29.838Z,26.70
2022-08-22T19:39:00.022Z,26.60
2022-08-22T19:41:50.782Z,26.60
2022-08-22T19:44:20.612Z,26.50
2022-08-22T19:47:19.882Z,26.40
2022-08-22T19:50:00.838Z,26.30
2022-08-22T19:52:40.068Z,26.30
2022-08-22T19:55:21.992Z,26.20
2022-08-22T19:57:57.370Z,26.20
2022-08-22T20:00:57.919Z,26.10
2022-08-22T20:03:53.947Z,26.10
2022-08-22T20:06:43.096Z,26.00
2022-08-22T20:09:14.354Z,26.00
2022-08-22T20:12:15.681Z,25.90
2022-08-22T20:14:45.635Z,25.90
2022-08-22T20:17:24.805Z,25.80
2022-08-22T20:23:05.937Z,25.70
2022-08-22T20:25:51.955Z,25.70
2022-08-22T20:28:45.063Z,25.70
2022-08-22T20:31:22.096Z,25.60
2022-08-22T20:33:55.291Z,25.60
2022-08-22T20:36:28.828Z,25.60
2022-08-22T20:39:07.416Z,25.60
2022-08-22T20:41:39.067Z,25.60
2022-08-22T20:44:20.774Z,25.60
2022-08-22T20:47:11.365Z,25.60
2022-08-22T20:49:48.469Z,25.60
2022-08-22T20:52:28.145Z,25.50
2022-08-22T20:55:31.488Z,25.40
2022-08-22T20:58:02.582Z,25.40
2022-08-22T21:00:51.100Z,25.40
2022-08-22T21:03:36.961Z,25.30
2022-08-22T21:06:28.391Z,25.30
2022-08-22T21:09:39.452Z,25.20
2022-08-22T21:12:09.402Z,25.20
2022-08-22T21:14:44.340Z,25.10
2022-08-22T21:17:34.198Z,25.10
2022-08-22T21:20:22.715Z,25.00
2022-08-22T21:22:50.438Z,25.00
2022-08-22T21:25:17.493Z,25.00
2022-08-22T21:27:49.315Z,25.00
2022-08-22T21:30:24.487Z,25.00
2022-08-22T21:32:55.938Z,25.10
2022-08-22T21:35:32.204Z,25.10
2022-08-22T21:38:01.152Z,25.10
2022-08-22T21:40:35.009Z,25.10
2022-08-22T21:43:06.319Z,25.20
2022-08-22T21:45:39.010Z,25.20
2022-08-22T21:48:56.517Z,25.20
2022-08-22T21:51:45.200Z,25.20
2022-08-22T21:54:29.847Z,25.20
2022-08-22T21:56:59.537Z,25.20
2022-08-22T21:59:50.527Z,25.20
2022-08-22T22:02:39.635Z,25.30
2022-08-22T22:05:17.617Z,25.30
2022-08-22T22:07:46.639Z,25.30
2022-08-22T22:10:16.655Z,25.20
2022-08-22T22:12:45.572Z,25.10
2022-08-22T22:15:15.811Z,25.10
2022-08-22T22:17:43.405Z,25.00
2022-08-22T22:20:11.499Z,24.90
2022-08-22T22:22:46.029Z,24.90
2022-08-22T22:25:41.034Z,24.90
2022-08-22T22:28:16.739Z,24.90
2022-08-22T22:30:45.287Z,24.90
2022-08-22T22:33:12.169Z,25.00
2022-08-22T22:35:40.638Z,25.00
2022-08-22T22:38:08.366Z,25.00
2022-08-22T22:40:35.451Z,24.90
2022-08-22T22:43:02.430Z,25.00
2022-08-22T22:45:29.877Z,24.90
2022-08-22T22:47:57.093Z,24.90
2022-08-22T22:50:24.308Z,24.80
2022-08-22T22:52:51.250Z,24.80
2022-08-22T22:55:24.220Z,24.80
2022-08-22T22:57:58.642Z,24.80
2022-08-22T23:00:31.433Z,24.80
2022-08-22T23:03:03.092Z,24.70
2022-08-22T23:05:31.242Z,24.70
2022-08-22T23:07:58.680Z,24.70
2022-08-22T23:10:27.134Z,24.70
2022-08-22T23:12:54.088Z,24.70
2022-08-22T23:15:21.275Z,24.60
2022-08-22T23:17:48.410Z,24.60
2022-08-22T23:20:15.356Z,24.60
2022-08-22T23:22:44.990Z,24.60
2022-08-22T23:25:11.926Z,24.60
2022-08-22T23:27:38.824Z,24.60
2022-08-22T23:30:08.605Z,24.60
2022-08-22T23:32:36.952Z,24.60
2022-08-22T23:35:04.932Z,24.60
2022-08-22T23:37:31.822Z,24.60
2022-08-22T23:39:58.721Z,24.50
2022-08-22T23:42:25.866Z,24.50
2022-08-22T23:44:52.739Z,24.50
2022-08-22T23:47:19.578Z,24.40
2022-08-22T23:49:46.606Z,24.40
2022-08-22T23:52:14.258Z,24.30
2022-08-22T23:54:41.512Z,24.30
2022-08-22T23:57:11.562Z,24.30
2022-08-22T23:59:46.203Z,24.30
